Time;durP1;ratioP1;P1;durP2;ratioP2;P2;SDS_P1;SDS_P2;PMS_P1;PMS_P2;Temp;Humidity;BMP_temperature;BMP_pressure;BME280_temperature;BME280_humidity;BME280_pressure;Samples;Min_cycle;Max_cycle;Signal;HPM_P1;HPM_P2
2022/05/16 00:00:36;;;;;;;8.73;3.03;;;13.20;99.90;;;;;;5026505;28;20112;-78
2022/05/16 00:03:04;;;;;;;3.55;2.70;;;13.20;99.90;;;;;;5027535;28;20057;-78
2022/05/16 00:05:30;;;;;;;8.13;3.05;;;13.20;99.90;;;;;;5027960;28;20133;-79
2022/05/16 00:07:56;;;;;;;4.88;3.13;;;13.20;99.90;;;;;;5027603;28;20056;-78
2022/05/16 00:10:22;;;;;;;3.28;2.97;;;13.20;99.90;;;;;;5027235;28;20404;-78
2022/05/16 00:12:48;;;;;;;3.15;2.92;;;13.10;99.90;;;;;;5027256;28;20051;-78
2022/05/16 00:15:16;;;;;;;6.50;3.17;;;13.10;99.90;;;;;;5026434;28;20053;-78
2022/05/16 00:17:41;;;;;;;6.80;3.95;;;13.20;99.90;;;;;;5027240;28;20464;-78
2022/05/16 00:20:08;;;;;;;4.72;3.05;;;13.20;99.90;;;;;;5026938;28;20092;-78
2022/05/16 00:22:34;;;;;;;8.07;3.20;;;13.10;99.90;;;;;;5026949;28;20064;-79
2022/05/16 00:24:59;;;;;;;7.25;3.42;;;13.10;99.90;;;;;;5026473;28;20512;-78
2022/05/16 00:27:25;;;;;;;5.90;2.55;;;13.10;99.90;;;;;;5025866;28;20104;-78
2022/05/16 00:29:50;;;;;;;13.32;3.25;;;13.10;99.90;;;;;;5026947;28;20518;-78
2022/05/16 00:32:17;;;;;;;5.90;2.97;;;13.10;99.90;;;;;;5025653;28;20037;-78
2022/05/16 00:34:42;;;;;;;6.05;3.78;;;13.10;99.90;;;;;;5026826;28;20045;-78
2022/05/16 00:37:08;;;;;;;3.97;3.13;;;13.10;99.90;;;;;;5026287;28;20099;-78
2022/05/16 00:39:34;;;;;;;11.50;3.40;;;13.10;99.90;;;;;;5027011;28;20046;-79
2022/05/16 00:42:01;;;;;;;4.15;3.20;;;13.10;99.90;;;;;;5027323;28;20037;-78
2022/05/16 00:44:28;;;;;;;10.02;3.53;;;13.00;99.90;;;;;;5027176;28;20416;-79
2022/05/16 00:46:53;;;;;;;2.88;2.35;;;13.00;99.90;;;;;;5025412;28;20048;-78
2022/05/16 00:49:31;;;;;;;4.13;3.72;;;13.00;99.90;;;;;;5026401;28;20042;-78
2022/05/16 00:52:15;;;;;;;3.33;2.92;;;13.00;99.90;;;;;;5026696;28;20049;-78
2022/05/16 00:54:44;;;;;;;5.10;3.03;;;13.00;99.90;;;;;;5026501;28;20050;-78
2022/05/16 00:57:14;;;;;;;4.28;2.92;;;13.00;99.90;;;;;;5026090;28;20041;-78
2022/05/16 00:59:42;;;;;;;7.18;2.35;;;13.00;99.90;;;;;;5026712;28;20480;-78
2022/05/16 01:04:54;;;;;;;4.85;2.95;;;13.00;99.90;;;;;;5026267;28;20052;-78
2022/05/16 01:07:42;;;;;;;8.43;3.95;;;13.00;99.90;;;;;;5031610;23;20054;-78
2022/05/16 01:10:13;;;;;;;8.35;4.20;;;13.00;99.90;;;;;;5005413;28;20050;-78
2022/05/16 01:12:42;;;;;;;3.38;2.88;;;13.00;99.90;;;;;;5006573;28;20552;-78
2022/05/16 01:15:25;;;;;;;3.58;3.17;;;12.90;99.90;;;;;;5003890;28;20120;-79
2022/05/16 01:17:51;;;;;;;6.97;2.97;;;13.00;99.90;;;;;;5006226;28;20611;-78
2022/05/16 01:20:16;;;;;;;10.25;3.15;;;13.00;99.90;;;;;;5006196;28;20052;-79
2022/05/16 01:22:46;;;;;;;3.25;2.67;;;12.90;99.90;;;;;;5005521;28;20054;-78
2022/05/16 01:25:27;;;;;;;7.60;2.72;;;12.90;99.90;;;;;;5006388;28;20034;-78
2022/05/16 01:28:04;;;;;;;4.22;2.97;;;12.90;99.90;;;;;;5006334;28;20408;-78
2022/05/16 01:30:35;;;;;;;5.82;3.22;;;12.90;99.90;;;;;;5004110;28;20052;-78
2022/05/16 01:33:00;;;;;;;5.32;3.33;;;12.90;99.90;;;;;;5004376;28;20673;-78
2022/05/16 01:35:30;;;;;;;9.30;2.85;;;12.90;99.90;;;;;;5006451;28;20129;-78
2022/05/16 01:40:41;;;;;;;8.35;4.18;;;12.90;99.90;;;;;;5004879;28;20121;-79
2022/05/16 01:43:07;;;;;;;5.80;3.63;;;12.80;99.90;;;;;;5005125;28;20393;-78
2022/05/16 01:45:33;;;;;;;6.25;2.63;;;12.80;99.90;;;;;;5004603;28;20131;-78
2022/05/16 01:47:59;;;;;;;5.32;3.25;;;12.90;99.90;;;;;;4986272;28;20093;-78
2022/05/16 01:50:25;;;;;;;5.18;3.08;;;12.80;99.90;;;;;;4986003;28;20038;-78
2022/05/16 01:52:51;;;;;;;4.32;2.05;;;12.80;99.90;;;;;;4986120;28;20128;-78
2022/05/16 01:55:17;;;;;;;7.88;3.13;;;12.80;99.90;;;;;;4986022;28;20116;-78
2022/05/16 01:57:43;;;;;;;3.25;2.92;;;12.80;99.90;;;;;;4985899;28;20094;-78
2022/05/16 02:00:12;;;;;;;4.85;3.50;;;12.80;99.90;;;;;;4983641;28;20125;-78
2022/05/16 02:02:42;;;;;;;3.92;2.40;;;12.80;99.90;;;;;;4985714;28;20051;-78
2022/05/16 02:05:28;;;;;;;4.78;3.45;;;12.80;99.90;;;;;;4984287;28;20069;-78
2022/05/16 02:07:54;;;;;;;4.55;3.47;;;12.70;99.90;;;;;;4995385;28;20069;-78
2022/05/16 02:10:23;;;;;;;4.40;3.20;;;12.70;99.90;;;;;;5004227;28;20065;-78
2022/05/16 02:12:50;;;;;;;3.90;2.60;;;12.70;99.90;;;;;;5005102;28;20116;-78
2022/05/16 02:15:20;;;;;;;3.28;2.65;;;12.70;99.90;;;;;;5002780;28;20046;-78
2022/05/16 02:17:46;;;;;;;4.65;4.07;;;12.70;99.90;;;;;;5003489;28;20049;-78
2022/05/16 02:20:12;;;;;;;3.45;2.42;;;12.70;99.90;;;;;;4987068;28;20046;-78
2022/05/16 02:25:23;;;;;;;9.80;3.63;;;12.70;99.90;;;;;;5004524;28;20104;-78
2022/05/16 02:27:50;;;;;;;6.00;3.53;;;12.60;99.90;;;;;;5004771;28;20054;-78
2022/05/16 02:30:15;;;;;;;2.65;2.45;;;12.60;99.90;;;;;;5003712;28;20070;-78
2022/05/16 02:32:41;;;;;;;3.50;2.83;;;12.60;99.90;;;;;;5004965;28;20092;-78
2022/05/16 02:35:07;;;;;;;6.40;3.38;;;12.60;99.90;;;;;;5004626;28;20046;-79
2022/05/16 02:37:33;;;;;;;7.15;2.78;;;12.60;99.90;;;;;;5004356;28;20046;-79
2022/05/16 02:39:58;;;;;;;3.88;2.50;;;12.60;99.90;;;;;;5005099;28;20523;-78
2022/05/16 02:42:24;;;;;;;3.47;2.60;;;12.60;99.90;;;;;;5002867;28;20049;-78
2022/05/16 02:44:52;;;;;;;4.85;3.38;;;12.60;99.90;;;;;;5002757;28;20042;-78
2022/05/16 02:47:21;;;;;;;7.00;2.85;;;12.60;99.90;;;;;;4997982;28;20046;-78
2022/05/16 02:49:47;;;;;;;2.85;2.55;;;12.60;99.90;;;;;;5003815;28;20077;-78
2022/05/16 02:52:13;;;;;;;3.70;2.97;;;12.60;99.90;;;;;;5004625;28;20046;-78
2022/05/16 02:54:39;;;;;;;7.70;3.38;;;12.60;99.90;;;;;;5004695;28;20033;-78
2022/05/16 02:57:05;;;;;;;3.35;3.05;;;12.50;99.90;;;;;;5004540;28;20528;-78
2022/05/16 02:59:32;;;;;;;4.20;2.60;;;12.50;99.90;;;;;;5003472;28;20045;-79
2022/05/16 03:02:06;;;;;;;15.90;3.60;;;12.50;99.90;;;;;;5004256;28;20051;-78
2022/05/16 03:04:32;;;;;;;2.65;2.45;;;12.50;99.90;;;;;;5003582;28;20045;-78
2022/05/16 03:06:59;;;;;;;5.53;2.10;;;12.50;99.90;;;;;;5004145;28;20062;-78
2022/05/16 03:09:26;;;;;;;4.05;2.70;;;12.50;99.90;;;;;;5003775;28;20058;-78
2022/05/16 03:11:53;;;;;;;3.90;3.35;;;12.50;99.90;;;;;;5003366;28;20050;-78
2022/05/16 03:14:19;;;;;;;3.20;2.92;;;12.50;99.90;;;;;;5004533;28;20048;-78
2022/05/16 03:16:45;;;;;;;7.70;3.67;;;12.50;99.90;;;;;;5004010;28;20072;-78
2022/05/16 03:19:11;;;;;;;2.67;2.47;;;12.50;99.90;;;;;;5002778;28;20045;-78
2022/05/16 03:21:37;;;;;;;7.55;2.60;;;12.50;99.90;;;;;;5003179;28;20093;-78
2022/05/16 03:24:04;;;;;;;7.47;2.08;;;12.50;99.90;;;;;;5003892;28;20084;-79
2022/05/16 03:26:30;;;;;;;4.97;3.22;;;12.40;99.90;;;;;;5004401;28;20056;-78
2022/05/16 03:28:55;;;;;;;3.60;2.80;;;12.50;99.90;;;;;;5004645;28;20392;-78
2022/05/16 03:31:21;;;;;;;2.35;2.15;;;12.50;99.90;;;;;;5003291;28;20089;-78
2022/05/16 03:33:46;;;;;;;5.55;1.65;;;12.40;99.90;;;;;;5004042;28;20117;-78
2022/05/16 03:36:12;;;;;;;2.28;1.77;;;12.40;99.90;;;;;;5002946;28;20037;-78
2022/05/16 03:41:22;;;;;;;2.15;1.95;;;12.40;99.90;;;;;;5004107;28;20053;-78
2022/05/16 03:43:49;;;;;;;6.32;2.80;;;12.40;99.90;;;;;;5004152;28;20061;-78
2022/05/16 03:46:15;;;;;;;2.35;2.03;;;12.40;99.90;;;;;;4997518;28;20042;-78
2022/05/16 03:48:40;;;;;;;3.10;1.90;;;12.40;99.90;;;;;;4984341;28;20485;-78
2022/05/16 03:51:09;;;;;;;4.30;2.78;;;12.40;99.90;;;;;;4984184;28;20049;-78
2022/05/16 03:53:36;;;;;;;3.05;2.22;;;12.40;99.90;;;;;;4984281;28;20467;-79
2022/05/16 03:56:03;;;;;;;2.47;2.28;;;12.40;99.90;;;;;;4984525;28;20412;-78
2022/05/16 03:58:29;;;;;;;1.65;1.33;;;12.40;99.90;;;;;;4984909;28;20038;-78
2022/05/16 04:00:54;;;;;;;4.22;1.52;;;12.40;99.90;;;;;;4982442;28;20058;-78
2022/05/16 04:03:20;;;;;;;3.65;1.95;;;12.40;99.90;;;;;;4982862;28;20292;-78
2022/05/16 04:05:45;;;;;;;2.97;2.45;;;12.30;99.90;;;;;;4984301;28;20054;-78
2022/05/16 04:08:11;;;;;;;1.80;1.70;;;12.30;99.90;;;;;;4998128;28;20637;-78
2022/05/16 04:10:37;;;;;;;3.70;2.28;;;12.40;99.90;;;;;;5003315;28;20037;-78
2022/05/16 04:13:02;;;;;;;1.83;1.42;;;12.40;99.90;;;;;;5003981;28;20171;-79
2022/05/16 04:15:28;;;;;;;2.15;1.85;;;12.40;99.90;;;;;;5001257;28;20698;-78
2022/05/16 04:17:54;;;;;;;3.20;2.97;;;12.40;99.90;;;;;;5002609;28;20054;-78
2022/05/16 04:20:21;;;;;;;3.90;2.08;;;12.40;99.90;;;;;;5003297;28;20107;-78
2022/05/16 04:22:47;;;;;;;2.08;1.70;;;12.40;99.90;;;;;;5004084;28;20038;-78
2022/05/16 04:25:18;;;;;;;3.50;1.50;;;12.40;99.90;;;;;;5018871;28;20041;-78
2022/05/16 04:27:43;;;;;;;1.73;1.40;;;12.40;99.90;;;;;;5003808;28;20042;-78
2022/05/16 04:30:10;;;;;;;4.53;2.00;;;12.40;99.90;;;;;;5002792;28;20120;-78
2022/05/16 04:32:36;;;;;;;3.17;1.80;;;12.40;99.90;;;;;;5002508;28;20111;-78
2022/05/16 04:35:02;;;;;;;3.40;1.90;;;12.50;99.90;;;;;;5003528;28;20046;-78
2022/05/16 04:37:32;;;;;;;4.68;2.35;;;12.50;99.90;;;;;;4999367;28;20084;-78
2022/05/16 04:39:59;;;;;;;2.03;1.77;;;12.50;99.90;;;;;;4988049;28;20046;-78
2022/05/16 04:42:41;;;;;;;1.45;1.35;;;12.50;99.90;;;;;;4989617;28;20074;-78
2022/05/16 04:45:22;;;;;;;3.03;1.90;;;12.50;99.90;;;;;;4997636;28;20129;-78
2022/05/16 04:47:51;;;;;;;1.63;1.42;;;12.50;99.90;;;;;;4971043;28;20125;-79
2022/05/16 04:50:19;;;;;;;1.35;1.25;;;12.50;99.90;;;;;;5003743;28;20048;-79
2022/05/16 04:52:46;;;;;;;1.30;1.17;;;12.50;99.90;;;;;;5006471;28;20049;-79
2022/05/16 04:55:12;;;;;;;1.77;1.67;;;12.60;99.90;;;;;;5005950;28;20049;-79
2022/05/16 04:57:38;;;;;;;1.65;1.50;;;12.60;99.90;;;;;;5005752;28;20072;-78
2022/05/16 05:00:06;;;;;;;2.28;1.73;;;12.60;99.90;;;;;;5003830;28;20042;-79
2022/05/16 05:02:32;;;;;;;1.67;1.55;;;12.70;99.90;;;;;;5006451;28;20488;-78
2022/05/16 05:04:59;;;;;;;7.60;1.67;;;12.70;99.90;;;;;;5006468;28;20073;-79
2022/05/16 05:07:25;;;;;;;4.88;1.55;;;12.80;99.90;;;;;;5005573;28;20278;-78
2022/05/16 05:15:20;;;;;;;7.57;2.22;;;12.90;99.90;;;;;;5005239;28;20136;-78
2022/05/16 05:17:46;;;;;;;2.33;1.55;;;13.00;99.90;;;;;;5004937;28;20141;-78
2022/05/16 05:20:13;;;;;;;1.73;1.42;;;13.00;99.90;;;;;;5005479;28;20046;-78
2022/05/16 05:22:48;;;;;;;5.28;1.85;;;13.00;99.90;;;;;;5006109;28;20131;-77
2022/05/16 05:25:17;;;;;;;2.53;1.45;;;13.10;99.90;;;;;;4985925;28;20042;-77
2022/05/16 05:27:45;;;;;;;2.70;1.40;;;13.10;99.90;;;;;;4995673;28;20425;-77
2022/05/16 05:30:14;;;;;;;2.95;1.75;;;13.10;99.90;;;;;;4984499;28;20065;-77
2022/05/16 05:32:39;;;;;;;1.73;1.50;;;13.10;99.90;;;;;;4992590;28;20046;-78
2022/05/16 05:35:06;;;;;;;2.13;1.88;;;13.10;99.90;;;;;;4990970;28;20034;-77
2022/05/16 05:37:32;;;;;;;4.95;1.27;;;13.10;99.90;;;;;;4997560;28;20100;-77
2022/05/16 05:40:00;;;;;;;2.88;1.35;;;13.20;99.90;;;;;;4995120;28;20048;-77
2022/05/16 05:42:26;;;;;;;2.00;1.58;;;13.10;99.90;;;;;;5003597;28;20053;-77
2022/05/16 05:44:52;;;;;;;3.50;1.17;;;13.10;99.90;;;;;;4999959;28;20046;-77
2022/05/16 05:47:19;;;;;;;2.10;1.48;;;13.20;99.90;;;;;;4999767;28;20734;-77
2022/05/16 05:49:45;;;;;;;2.45;1.33;;;13.10;99.90;;;;;;4998819;28;20425;-77
2022/05/16 05:52:10;;;;;;;1.83;1.60;;;13.10;99.90;;;;;;4984085;28;20070;-78
2022/05/16 05:54:36;;;;;;;2.55;2.05;;;13.20;99.90;;;;;;4993060;28;20038;-77
2022/05/16 05:57:02;;;;;;;3.10;2.38;;;13.20;99.90;;;;;;4997166;28;20399;-77
2022/05/16 05:59:28;;;;;;;2.85;1.38;;;13.30;99.90;;;;;;4997341;28;20088;-77
2022/05/16 06:01:54;;;;;;;5.03;2.83;;;13.30;99.90;;;;;;4986659;28;20038;-77
2022/05/16 06:04:20;;;;;;;1.85;1.75;;;13.40;99.90;;;;;;5001617;28;20038;-77
2022/05/16 06:06:47;;;;;;;5.72;1.52;;;13.50;99.90;;;;;;5005202;28;20045;-78
2022/05/16 06:09:13;;;;;;;5.60;1.83;;;13.50;99.90;;;;;;4996426;28;20058;-77
2022/05/16 06:11:39;;;;;;;4.22;2.05;;;13.60;99.90;;;;;;4999844;28;20100;-77
2022/05/16 06:14:04;;;;;;;3.88;1.77;;;13.70;99.90;;;;;;4996060;28;20448;-77
2022/05/16 06:16:30;;;;;;;2.55;1.50;;;13.70;99.90;;;;;;4987752;28;20047;-77
2022/05/16 06:18:55;;;;;;;6.63;2.63;;;13.80;99.90;;;;;;4991773;28;20042;-77
2022/05/16 06:21:21;;;;;;;6.22;2.17;;;13.90;99.90;;;;;;4999310;28;20064;-76
2022/05/16 06:23:47;;;;;;;2.45;2.25;;;13.90;99.90;;;;;;4997383;28;20088;-77
2022/05/16 06:26:12;;;;;;;3.10;1.50;;;14.00;99.90;;;;;;4997453;28;20076;-76
2022/05/16 06:28:39;;;;;;;2.58;1.30;;;14.00;99.90;;;;;;4993005;28;20385;-76
2022/05/16 06:31:05;;;;;;;2.90;1.85;;;14.10;99.90;;;;;;4983888;28;20050;-77
2022/05/16 06:33:31;;;;;;;3.45;1.80;;;14.10;99.90;;;;;;4996225;28;20496;-77
2022/05/16 06:35:59;;;;;;;2.58;1.65;;;14.10;99.90;;;;;;4993720;28;20048;-77
2022/05/16 06:38:28;;;;;;;1.42;1.33;;;14.10;99.90;;;;;;4987777;28;20049;-78
2022/05/16 06:40:55;;;;;;;4.40;2.00;;;14.20;99.90;;;;;;4998617;28;20237;-80
2022/05/16 06:43:23;;;;;;;4.35;1.75;;;14.20;99.90;;;;;;5009209;28;20065;-79
2022/05/16 06:45:50;;;;;;;3.20;1.95;;;14.20;99.90;;;;;;4995013;28;20504;-78
2022/05/16 06:48:16;;;;;;;1.45;1.35;;;14.30;99.90;;;;;;5004092;28;20054;-78
2022/05/16 06:50:43;;;;;;;4.72;2.33;;;14.30;99.90;;;;;;5003507;28;20056;-79
2022/05/16 06:53:13;;;;;;;2.75;1.67;;;14.40;99.90;;;;;;4999391;28;20049;-79
2022/05/16 06:55:39;;;;;;;2.70;1.60;;;14.50;99.90;;;;;;5001885;28;20038;-79
2022/05/16 06:58:04;;;;;;;2.30;1.80;;;14.50;99.90;;;;;;4997269;28;20044;-78
2022/05/16 07:00:30;;;;;;;3.38;1.92;;;14.60;99.90;;;;;;5000917;28;20042;-78
2022/05/16 07:02:55;;;;;;;2.97;2.22;;;14.70;99.90;;;;;;5003189;28;20466;-78
2022/05/16 07:05:21;;;;;;;3.72;1.67;;;14.80;99.90;;;;;;5003892;28;20046;-77
2022/05/16 07:07:46;;;;;;;4.72;2.55;;;14.90;99.90;;;;;;4999446;28;20127;-79
2022/05/16 07:10:12;;;;;;;6.63;1.42;;;15.00;99.90;;;;;;5002427;28;20396;-79
2022/05/16 07:12:38;;;;;;;9.95;2.40;;;15.00;99.90;;;;;;4998654;28;20142;-81
2022/05/16 07:15:04;;;;;;;3.33;2.25;;;15.00;99.90;;;;;;4996862;28;20605;-80
2022/05/16 07:17:29;;;;;;;5.50;2.20;;;15.10;99.90;;;;;;5003997;28;20046;-80
2022/05/16 07:19:55;;;;;;;3.50;1.88;;;15.10;99.90;;;;;;5001119;28;20040;-82
2022/05/16 07:22:22;;;;;;;5.03;1.88;;;15.10;99.90;;;;;;4994214;28;20533;-83
2022/05/16 07:24:49;;;;;;;4.55;1.98;;;15.20;99.90;;;;;;4992991;28;20166;-80
2022/05/16 07:29:59;;;;;;;4.80;1.65;;;15.30;99.90;;;;;;4983677;28;20282;-81
2022/05/16 07:32:36;;;;;;;2.88;1.45;;;15.30;99.90;;;;;;5002660;28;20408;-80
2022/05/16 07:35:05;;;;;;;2.97;1.92;;;15.40;99.90;;;;;;4985338;28;20344;-81
2022/05/16 07:37:31;;;;;;;3.03;1.42;;;15.40;99.90;;;;;;5003307;28;20034;-79
2022/05/16 07:39:58;;;;;;;2.35;1.75;;;15.40;99.90;;;;;;5003913;28;20427;-80
2022/05/16 07:42:24;;;;;;;3.30;1.80;;;15.50;99.90;;;;;;5003472;28;20050;-80
2022/05/16 07:44:50;;;;;;;3.67;1.92;;;15.60;99.90;;;;;;5002721;28;20042;-80
2022/05/16 07:47:16;;;;;;;1.48;1.30;;;15.60;99.90;;;;;;4989633;28;20060;-81
2022/05/16 07:49:41;;;;;;;3.15;2.13;;;15.70;99.90;;;;;;5003718;28;20034;-81
2022/05/16 07:52:07;;;;;;;1.67;1.58;;;15.70;99.90;;;;;;5002880;28;20144;-81
2022/05/16 07:54:34;;;;;;;5.75;1.63;;;15.80;99.90;;;;;;5003025;28;20489;-81
2022/05/16 07:57:00;;;;;;;3.03;1.95;;;15.90;99.90;;;;;;5004300;28;20100;-80
2022/05/16 07:59:26;;;;;;;1.88;1.50;;;15.90;99.90;;;;;;5003423;28;20034;-80
2022/05/16 08:01:51;;;;;;;5.13;1.95;;;16.00;99.90;;;;;;4993053;28;20556;-80
2022/05/16 08:04:17;;;;;;;8.82;2.25;;;16.00;99.90;;;;;;4993177;28;20725;-80
2022/05/16 08:06:43;;;;;;;9.63;2.08;;;16.00;99.90;;;;;;4993005;28;20054;-80
2022/05/16 08:11:53;;;;;;;1.98;1.52;;;16.00;99.90;;;;;;4991887;28;20042;-79
2022/05/16 08:14:18;;;;;;;3.35;1.80;;;16.10;99.90;;;;;;4994043;28;20133;-80
2022/05/16 08:16:44;;;;;;;8.68;3.42;;;16.10;99.90;;;;;;5001436;28;20045;-80
2022/05/16 08:19:09;;;;;;;2.83;1.83;;;16.20;99.90;;;;;;4998975;28;20526;-80
2022/05/16 08:21:36;;;;;;;8.38;2.35;;;16.20;99.90;;;;;;4996314;28;20520;-81
2022/05/16 08:24:02;;;;;;;3.53;1.90;;;16.20;99.90;;;;;;4977265;28;20044;-79
2022/05/16 08:26:28;;;;;;;2.42;1.95;;;16.30;99.90;;;;;;4998259;28;20053;-80
2022/05/16 08:28:54;;;;;;;3.38;2.10;;;16.40;99.90;;;;;;4994856;28;20194;-81
2022/05/16 08:31:19;;;;;;;3.90;1.80;;;16.40;99.90;;;;;;4999440;28;20050;-79
2022/05/16 08:33:45;;;;;;;2.08;1.85;;;16.50;99.90;;;;;;4997585;28;20682;-84
2022/05/16 08:41:55;;;;;;;2.63;1.42;;;16.60;99.90;;;;;;4995238;28;20103;-82
2022/05/16 08:44:36;;;;;;;6.20;1.65;;;16.70;99.90;;;;;;4987969;28;20061;-81
2022/05/16 08:47:31;;;;;;;3.85;1.92;;;16.80;99.90;;;;;;5021711;28;20080;-80
2022/05/16 08:50:01;;;;;;;2.88;1.63;;;16.90;99.90;;;;;;4998457;28;20062;-81
2022/05/16 08:52:52;;;;;;;2.03;1.52;;;17.00;99.90;;;;;;5001314;28;20052;-82
2022/05/16 08:55:23;;;;;;;3.53;1.85;;;17.20;99.90;;;;;;5011308;28;20687;-80
2022/05/16 08:58:21;;;;;;;2.78;2.13;;;17.30;99.90;;;;;;4995153;28;20528;-81
2022/05/16 09:00:56;;;;;;;1.58;1.48;;;17.40;99.90;;;;;;4980359;28;20123;-82
2022/05/16 09:03:33;;;;;;;2.10;1.70;;;17.50;99.90;;;;;;4995468;28;20045;-81
2022/05/16 09:06:05;;;;;;;1.67;1.58;;;17.60;99.90;;;;;;5002996;28;20111;-82
2022/05/16 09:08:52;;;;;;;2.42;1.40;;;17.70;99.90;;;;;;5006327;28;20061;-80
2022/05/16 09:11:45;;;;;;;1.52;1.23;;;17.80;99.90;;;;;;5005827;28;20046;-81
2022/05/16 09:14:29;;;;;;;2.00;1.65;;;17.90;99.90;;;;;;5003378;28;20140;-81
2022/05/16 09:17:07;;;;;;;4.57;1.95;;;18.00;99.90;;;;;;5005235;28;20046;-81
2022/05/16 09:19:47;;;;;;;3.17;1.77;;;18.10;99.90;;;;;;5004748;28;20042;-80
2022/05/16 09:22:24;;;;;;;2.33;1.58;;;18.20;99.90;;;;;;4991789;28;20047;-82
2022/05/16 09:24:54;;;;;;;1.77;1.67;;;18.20;99.90;;;;;;4988962;28;20034;-83
2022/05/16 09:30:16;;;;;;;4.88;2.40;;;18.30;99.90;;;;;;4994806;28;20504;-80
2022/05/16 09:32:45;;;;;;;5.82;2.17;;;18.40;99.90;;;;;;4994267;28;20073;-81
2022/05/16 09:35:36;;;;;;;1.85;1.17;;;18.50;99.90;;;;;;4991570;28;20563;-80
2022/05/16 09:38:03;;;;;;;5.53;1.90;;;18.60;99.90;;;;;;4999984;28;20045;-81
2022/05/16 09:40:35;;;;;;;4.00;1.75;;;18.60;99.90;;;;;;5002153;28;20048;-80
2022/05/16 09:43:08;;;;;;;;;;;18.70;99.90;;;;;;4996843;28;20339;-80
2022/05/16 09:45:35;;;;;;;5.72;1.83;;;18.70;99.90;;;;;;4996399;28;19929;-81
2022/05/16 09:48:13;;;;;;;3.17;1.83;;;18.80;99.90;;;;;;4994375;28;20038;-79
2022/05/16 09:50:39;;;;;;;5.63;2.13;;;18.80;99.90;;;;;;5001102;28;20868;-81
2022/05/16 09:53:10;;;;;;;1.15;1.05;;;18.80;99.90;;;;;;4996880;28;20046;-81
2022/05/16 09:55:51;;;;;;;1.80;1.70;;;18.90;99.90;;;;;;4995020;28;20061;-81
2022/05/16 09:58:51;;;;;;;6.78;1.85;;;18.90;99.90;;;;;;5002485;28;20037;-81
2022/05/16 10:01:40;;;;;;;1.42;1.33;;;18.80;99.90;;;;;;4991176;28;20648;-80
2022/05/16 10:04:09;;;;;;;6.07;2.60;;;18.90;99.90;;;;;;4999213;28;20049;-80
2022/05/16 10:06:41;;;;;;;6.20;2.25;;;18.90;99.90;;;;;;4989981;28;20076;-80
2022/05/16 10:09:24;;;;;;;2.33;2.08;;;18.90;99.90;;;;;;5001749;28;20406;-80
2022/05/16 10:11:51;;;;;;;6.75;2.60;;;18.90;99.90;;;;;;4990529;28;20111;-80
2022/05/16 10:14:17;;;;;;;7.43;2.00;;;18.90;99.90;;;;;;4995789;28;20080;-80
2022/05/16 10:16:47;;;;;;;2.40;1.73;;;18.90;99.90;;;;;;4992840;28;20052;-80
2022/05/16 10:19:18;;;;;;;10.38;2.65;;;18.90;99.90;;;;;;4989296;28;20095;-81
2022/05/16 10:21:57;;;;;;;3.00;2.10;;;18.90;99.90;;;;;;4974081;28;20057;-80
2022/05/16 10:24:31;;;;;;;2.45;1.75;;;18.80;99.90;;;;;;4993123;28;20073;-81
2022/05/16 10:26:59;;;;;;;2.88;1.55;;;18.80;99.90;;;;;;5009144;28;20057;-81
2022/05/16 10:29:32;;;;;;;2.45;1.65;;;18.90;99.90;;;;;;5016785;28;20045;-82
2022/05/16 10:34:56;;;;;;;1.88;1.77;;;18.90;99.90;;;;;;5002838;28;20399;-82
2022/05/16 10:37:24;;;;;;;3.20;1.42;;;19.00;99.90;;;;;;5002901;28;20515;-82
2022/05/16 10:39:57;;;;;;;3.55;1.40;;;19.00;99.90;;;;;;5004548;28;20073;-81
2022/05/16 10:42:52;;;;;;;5.50;2.10;;;19.10;99.90;;;;;;5004644;28;20046;-82
2022/05/16 10:45:20;;;;;;;2.85;1.42;;;19.20;99.90;;;;;;5003017;28;20037;-82
2022/05/16 10:47:58;;;;;;;3.92;2.15;;;19.20;99.90;;;;;;5004130;28;20060;-82
2022/05/16 10:50:34;;;;;;;1.77;1.67;;;19.30;99.90;;;;;;5003797;28;20297;-82
2022/05/16 10:53:10;;;;;;;3.63;1.75;;;19.40;99.90;;;;;;5004884;28;20057;-82
2022/05/16 10:55:47;;;;;;;1.73;1.40;;;19.40;99.90;;;;;;5004416;28;20030;-83
2022/05/16 10:58:33;;;;;;;1.60;1.48;;;19.50;99.90;;;;;;5003732;28;20124;-82
2022/05/16 11:01:12;;;;;;;1.55;1.35;;;19.50;99.90;;;;;;5003860;28;20544;-81
2022/05/16 11:03:43;;;;;;;2.88;1.75;;;19.60;99.90;;;;;;5003534;28;20046;-80
2022/05/16 11:06:25;;;;;;;4.40;1.63;;;19.70;99.90;;;;;;5003972;28;20092;-80
2022/05/16 11:08:59;;;;;;;;;;;19.80;99.90;;;;;;4999578;28;20057;-81
2022/05/16 11:11:42;;;;;;;5.45;2.67;;;19.90;99.90;;;;;;5004265;28;19967;-81
2022/05/16 11:14:38;;;;;;;4.95;2.53;;;20.10;99.90;;;;;;5002156;28;20041;-82
2022/05/16 11:17:49;;;;;;;11.75;1.98;;;20.30;99.90;;;;;;5003898;28;20052;-82
2022/05/16 11:21:05;;;;;;;3.38;1.85;;;20.40;99.90;;;;;;5004378;28;20057;-82
2022/05/16 11:23:44;;;;;;;2.80;2.38;;;20.50;99.90;;;;;;4993791;28;20139;-79
2022/05/16 11:26:20;;;;;;;2.60;2.20;;;20.60;99.90;;;;;;5004039;28;20554;-82
2022/05/16 11:29:18;;;;;;;5.78;2.22;;;20.60;99.90;;;;;;4993238;28;20112;-81
2022/05/16 11:32:04;;;;;;;1.88;1.77;;;20.70;99.90;;;;;;5002171;28;20138;-82
2022/05/16 11:35:01;;;;;;;7.80;2.80;;;20.70;99.90;;;;;;5003475;28;20049;-82
2022/05/16 11:37:38;;;;;;;3.75;2.05;;;20.80;99.90;;;;;;5003469;28;20054;-82
2022/05/16 11:40:14;;;;;;;9.30;2.92;;;20.90;99.90;;;;;;5003491;28;20057;-82
2022/05/16 11:42:57;;;;;;;2.60;2.40;;;20.90;99.90;;;;;;4983091;28;20050;-82
2022/05/16 11:45:55;;;;;;;4.00;2.40;;;20.90;99.90;;;;;;4995878;28;20050;-80
2022/05/16 11:48:49;;;;;;;6.00;2.40;;;20.90;99.90;;;;;;5002563;28;20302;-83
2022/05/16 11:51:18;;;;;;;3.17;2.63;;;20.90;99.90;;;;;;5004569;28;20054;-82
2022/05/16 11:53:57;;;;;;;12.63;2.75;;;20.90;99.90;;;;;;5006180;28;20046;-84
2022/05/16 12:02:35;;;;;;;2.45;2.25;;;21.00;99.90;;;;;;5006584;28;20084;-79
2022/05/16 12:05:01;;;;;;;4.07;3.22;;;21.10;99.90;;;;;;5006518;28;20136;-80
2022/05/16 12:07:46;;;;;;;12.50;3.58;;;21.10;99.90;;;;;;5008376;28;20462;-79
2022/05/16 12:10:14;;;;;;;5.72;2.55;;;21.20;99.90;;;;;;5022557;28;20160;-80
2022/05/16 12:12:43;;;;;;;2.67;2.33;;;21.20;99.90;;;;;;5007687;28;20042;-82
2022/05/16 12:15:30;;;;;;;4.07;2.78;;;21.20;99.90;;;;;;5006493;28;20049;-82
2022/05/16 12:18:01;;;;;;;4.78;2.10;;;21.20;99.90;;;;;;5007638;28;20069;-81
2022/05/16 12:21:00;;;;;;;6.20;3.00;;;21.20;99.90;;;;;;5006523;28;20188;-80
2022/05/16 12:23:47;;;;;;;1.95;1.85;;;21.20;99.90;;;;;;5006665;28;20392;-81
2022/05/16 12:26:29;;;;;;;5.97;2.63;;;21.20;99.90;;;;;;5002964;28;20050;-81
2022/05/16 12:29:10;;;;;;;;;;;21.20;99.90;;;;;;5005869;28;20441;-81
2022/05/16 12:31:45;;;;;;;3.10;2.65;;;21.20;99.90;;;;;;5006270;28;19983;-81
2022/05/16 12:34:38;;;;;;;3.35;2.65;;;21.30;99.90;;;;;;5021699;28;20042;-81
2022/05/16 12:37:10;;;;;;;3.10;2.30;;;21.30;99.90;;;;;;5006802;28;20042;-82
2022/05/16 12:40:16;;;;;;;2.55;2.35;;;21.40;99.90;;;;;;5006874;28;20137;-81
2022/05/16 12:43:04;;;;;;;5.57;2.42;;;21.40;99.90;;;;;;5005998;28;20053;-81
2022/05/16 12:45:51;;;;;;;5.13;3.08;;;21.40;99.90;;;;;;5005780;28;20045;-81
2022/05/16 12:48:38;;;;;;;5.13;2.97;;;21.40;99.90;;;;;;4986913;28;20396;-81
2022/05/16 12:51:40;;;;;;;4.53;2.22;;;21.50;99.90;;;;;;4986995;28;20046;-83
2022/05/16 12:54:40;;;;;;;3.33;3.03;;;21.50;99.90;;;;;;4985906;28;20050;-79
2022/05/16 12:57:31;;;;;;;5.22;4.05;;;21.60;99.90;;;;;;4985951;28;20050;-79
2022/05/16 13:00:03;;;;;;;4.70;3.72;;;21.60;99.90;;;;;;4966583;28;20497;-80
2022/05/16 13:02:51;;;;;;;5.05;3.47;;;21.60;99.90;;;;;;4987416;28;20038;-80
2022/05/16 13:05:39;;;;;;;8.20;4.00;;;21.60;99.90;;;;;;4986931;28;20057;-80
2022/05/16 13:08:10;;;;;;;6.65;3.95;;;21.60;99.90;;;;;;4986449;28;20058;-80
2022/05/16 13:10:45;;;;;;;6.03;3.93;;;21.60;99.90;;;;;;4986038;28;20133;-80
2022/05/16 13:13:19;;;;;;;5.75;4.20;;;21.60;99.90;;;;;;4985911;28;20775;-80
2022/05/16 13:15:58;;;;;;;4.40;3.03;;;21.60;99.90;;;;;;4986662;28;20092;-80
2022/05/16 13:18:31;;;;;;;3.70;3.05;;;21.60;99.90;;;;;;4985688;28;20130;-80
2022/05/16 13:21:01;;;;;;;2.70;2.47;;;21.50;99.90;;;;;;4986008;28;20046;-80
2022/05/16 13:23:27;;;;;;;5.05;2.95;;;21.50;99.90;;;;;;4985754;28;20394;-78
2022/05/16 13:31:44;;;;;;;2.95;2.22;;;21.50;99.90;;;;;;4985780;28;20065;-85
2022/05/16 13:34:12;;;;;;;3.25;2.38;;;21.50;99.90;;;;;;4986442;28;20050;-81
2022/05/16 13:36:43;;;;;;;2.72;2.55;;;21.60;99.90;;;;;;4969256;28;20049;-81
2022/05/16 13:39:15;;;;;;;3.35;2.45;;;21.60;99.90;;;;;;4986229;28;20042;-83
2022/05/16 13:41:41;;;;;;;8.27;2.92;;;21.60;99.90;;;;;;4985784;28;20034;-83
2022/05/16 13:44:13;;;;;;;4.82;3.17;;;21.60;99.90;;;;;;4985157;28;20073;-82
2022/05/16 13:46:39;;;;;;;6.10;3.88;;;21.60;99.90;;;;;;4994455;28;20048;-80
2022/05/16 13:49:07;;;;;;;5.65;3.75;;;21.50;99.90;;;;;;5005304;28;20058;-80
2022/05/16 13:51:34;;;;;;;6.53;4.35;;;21.40;99.90;;;;;;5005680;28;20052;-79
2022/05/16 13:54:06;;;;;;;7.25;3.70;;;21.30;99.90;;;;;;5006155;28;20057;-80